createdAt,value
2022-09-15T00:02:13.461Z,100709.56
2022-09-15T00:04:49.742Z,100710.81
2022-09-15T00:07:34.381Z,100703.53
2022-09-15T00:10:23.824Z,100680.59
2022-09-15T00:13:13.965Z,100683.59
2022-09-15T00:16:02.111Z,100680.91
2022-09-15T00:19:18.875Z,100677.66
2022-09-15T00:22:07.546Z,100684.56
2022-09-15T00:24:49.960Z,100656.75
2022-09-15T00:27:33.263Z,100670.78
2022-09-15T00:30:18.238Z,100673.72
2022-09-15T00:33:04.776Z,100675.53
2022-09-15T00:35:51.335Z,100676.16
2022-09-15T00:38:37.435Z,100669.03
2022-09-15T00:41:28.137Z,100667.78
2022-09-15T00:44:16.203Z,100669.00
2022-09-15T00:47:19.112Z,100675.75
2022-09-15T00:50:24.066Z,100672.44
2022-09-15T00:53:13.535Z,100676.41
2022-09-15T00:56:00.187Z,100603.09
2022-09-15T00:59:16.930Z,100670.06
2022-09-15T01:02:03.415Z,100653.00
2022-09-15T01:04:52.770Z,100664.75
2022-09-15T01:07:53.480Z,100659.22
2022-09-15T01:10:48.594Z,100652.28
2022-09-15T01:13:34.978Z,100660.94
2022-09-15T01:16:36.828Z,100631.81
2022-09-15T01:19:49.404Z,100654.13
2022-09-15T01:22:37.041Z,100591.03
2022-09-15T01:25:45.387Z,100635.03
2022-09-15T01:29:09.735Z,100618.53
2022-09-15T01:32:16.464Z,100628.19
2022-09-15T01:35:05.448Z,100598.78
2022-09-15T01:37:43.478Z,100628.00
2022-09-15T01:40:27.955Z,100631.53
2022-09-15T01:43:23.778Z,100596.13
2022-09-15T01:46:05.576Z,100610.09
2022-09-15T01:51:51.371Z,100610.25
2022-09-15T01:54:45.677Z,100607.53
2022-09-15T01:57:40.451Z,100602.94
2022-09-15T02:00:26.964Z,100597.31
2022-09-15T02:03:17.961Z,100599.91
2022-09-15T02:06:09.018Z,100586.72
2022-09-15T02:09:06.169Z,100577.50
2022-09-15T02:11:56.513Z,100580.16
2022-09-15T02:14:51.853Z,100561.09
2022-09-15T02:17:34.742Z,100572.69
2022-09-15T02:20:19.516Z,100574.44
2022-09-15T02:23:11.315Z,100560.91
2022-09-15T02:25:58.083Z,100567.94
2022-09-15T02:28:44.475Z,100535.13
2022-09-15T02:31:38.757Z,100562.31
2022-09-15T02:34:24.785Z,100560.56
2022-09-15T02:37:22.605Z,100559.31
2022-09-15T02:40:22.724Z,100553.03
2022-09-15T02:43:17.742Z,100526.13
2022-09-15T02:45:58.955Z,100509.50
2022-09-15T02:48:42.334Z,100539.50
2022-09-15T02:51:20.668Z,100535.50
2022-09-15T02:53:58.255Z,100527.69
2022-09-15T02:57:01.168Z,100514.41
2022-09-15T03:00:00.674Z,100524.03
2022-09-15T03:02:50.214Z,100526.16
2022-09-15T03:08:24.033Z,100515.69
2022-09-15T03:11:13.554Z,100513.47
2022-09-15T03:13:59.549Z,100511.84
2022-09-15T03:16:47.917Z,100476.94
2022-09-15T03:19:32.289Z,100509.06
2022-09-15T03:22:07.710Z,100506.41
2022-09-15T03:27:48.791Z,100502.44
2022-09-15T03:30:44.781Z,100499.38
2022-09-15T03:33:26.029Z,100493.88
2022-09-15T03:36:15.445Z,100490.84
2022-09-15T03:38:55.692Z,100477.94
2022-09-15T03:41:40.068Z,100477.56
2022-09-15T03:44:18.936Z,100460.03
2022-09-15T03:47:05.812Z,100469.97
2022-09-15T03:49:42.923Z,100469.63
2022-09-15T03:52:21.452Z,100460.50
2022-09-15T03:55:00.052Z,100441.66
2022-09-15T03:57:45.031Z,100452.69
2022-09-15T04:00:27.972Z,100445.97
2022-09-15T04:03:13.321Z,100440.75
2022-09-15T04:05:54.269Z,100447.59
2022-09-15T04:08:41.853Z,100424.38
2022-09-15T04:11:21.334Z,100444.34
2022-09-15T04:13:59.607Z,100413.63
2022-09-15T04:16:55.691Z,100439.78
2022-09-15T04:19:50.107Z,100444.72
2022-09-15T04:22:28.785Z,100417.16
2022-09-15T04:25:14.869Z,100443.38
2022-09-15T04:27:51.399Z,100441.03
2022-09-15T04:30:35.767Z,100436.44
2022-09-15T04:33:18.778Z,100442.78
2022-09-15T04:39:05.312Z,100394.84
2022-09-15T04:41:47.081Z,100451.03
2022-09-15T04:44:29.152Z,100442.84
2022-09-15T04:47:14.432Z,100451.75
2022-09-15T04:49:54.324Z,100453.97
2022-09-15T04:52:40.872Z,100449.97
2022-09-15T04:55:34.093Z,100444.75
2022-09-15T04:58:13.306Z,100457.44
2022-09-15T05:00:52.501Z,100462.00
2022-09-15T05:03:32.043Z,100465.94
2022-09-15T05:06:14.308Z,100472.16
2022-09-15T05:09:09.070Z,100475.78
2022-09-15T05:11:53.090Z,100472.84
2022-09-15T05:14:47.557Z,100384.38
2022-09-15T05:20:27.814Z,100476.06
2022-09-15T05:23:29.640Z,100473.41
2022-09-15T05:26:11.029Z,100481.66
2022-09-15T05:28:50.899Z,100477.13
2022-09-15T05:31:30.384Z,100481.75
2022-09-15T05:34:24.401Z,100488.69
2022-09-15T05:37:11.040Z,100500.69
2022-09-15T05:40:05.182Z,100501.84
2022-09-15T05:43:02.182Z,100499.63
2022-09-15T05:45:50.440Z,100493.69
2022-09-15T05:48:36.891Z,100514.31
2022-09-15T05:51:13.622Z,100509.47
2022-09-15T05:53:50.033Z,100513.06
2022-09-15T05:56:39.290Z,100511.81
2022-09-15T05:59:17.031Z,100510.41
2022-09-15T06:01:55.206Z,100528.03
2022-09-15T06:04:39.598Z,100503.09
2022-09-15T06:07:16.808Z,100519.47
2022-09-15T06:13:05.887Z,100514.06
2022-09-15T06:16:00.907Z,100512.47
2022-09-15T06:18:54.379Z,100516.06
2022-09-15T06:21:33.888Z,100524.25
2022-09-15T06:24:13.024Z,100530.19
2022-09-15T06:26:50.859Z,100532.03
2022-09-15T06:29:36.777Z,100525.97
2022-09-15T06:32:26.349Z,100527.84
2022-09-15T06:35:02.804Z,100533.00
2022-09-15T06:37:37.509Z,100536.25
2022-09-15T06:40:22.913Z,100537.97
2022-09-15T06:43:06.408Z,100535.31
2022-09-15T06:45:47.561Z,100537.72
2022-09-15T06:48:40.131Z,100546.22
2022-09-15T06:51:28.918Z,100525.13
2022-09-15T06:57:36.256Z,100559.97
2022-09-15T07:00:22.087Z,100560.84
2022-09-15T07:03:12.893Z,100559.09
2022-09-15T07:06:05.127Z,100556.69
2022-09-15T07:08:53.161Z,100559.41
2022-09-15T07:14:46.173Z,100555.25
2022-09-15T07:17:30.035Z,100552.88
2022-09-15T07:20:08.857Z,100556.69
2022-09-15T07:22:57.080Z,100553.41
2022-09-15T07:25:37.984Z,100557.13
2022-09-15T07:28:35.077Z,100561.22
2022-09-15T07:31:15.597Z,100556.28
2022-09-15T07:33:51.847Z,100564.59
2022-09-15T07:36:47.064Z,100563.13
2022-09-15T07:39:31.925Z,100574.78
2022-09-15T07:42:23.138Z,100576.91
2022-09-15T07:45:09.758Z,100572.16
2022-09-15T07:47:56.170Z,100566.81
2022-09-15T07:50:34.428Z,100583.78
2022-09-15T07:53:24.132Z,100575.47
2022-09-15T07:56:11.344Z,100567.25
2022-09-15T08:01:49.437Z,100576.69
2022-09-15T08:04:47.363Z,100583.34
2022-09-15T08:07:40.583Z,100585.56
2022-09-15T08:13:30.476Z,100581.44
2022-09-15T08:16:18.268Z,100590.41
2022-09-15T08:19:03.851Z,100540.09
2022-09-15T08:22:03.316Z,100590.50
2022-09-15T08:25:04.453Z,100593.66
2022-09-15T08:27:46.542Z,100603.75
2022-09-15T08:30:53.162Z,100600.63
2022-09-15T08:33:44.770Z,100608.06
2022-09-15T08:36:37.461Z,100604.06
2022-09-15T08:39:16.588Z,100577.69
2022-09-15T08:41:57.506Z,100584.78
2022-09-15T08:44:49.896Z,100600.50
2022-09-15T08:50:37.970Z,100602.00
2022-09-15T08:53:19.902Z,100605.31
2022-09-15T08:56:10.794Z,100609.63
2022-09-15T08:59:22.197Z,100624.28
2022-09-15T09:02:51.205Z,100627.34
2022-09-15T09:06:12.684Z,100638.06
2022-09-15T09:09:36.901Z,100642.88
2022-09-15T09:12:50.017Z,100650.28
2022-09-15T09:15:45.292Z,100615.91
2022-09-15T09:19:17.423Z,100660.19
2022-09-15T09:22:10.771Z,100657.88
2022-09-15T09:24:55.886Z,100658.28
2022-09-15T09:27:54.590Z,100662.03
2022-09-15T09:30:42.105Z,100669.41
2022-09-15T09:33:38.561Z,100677.28
2022-09-15T09:39:10.501Z,100675.09
2022-09-15T09:41:58.987Z,100679.72
2022-09-15T09:44:45.177Z,100688.72
2022-09-15T09:47:35.919Z,100681.09
2022-09-15T09:50:35.917Z,100625.06
2022-09-15T09:53:38.920Z,100677.94
2022-09-15T09:56:31.915Z,100690.16
2022-09-15T09:59:12.831Z,100695.41
2022-09-15T10:02:24.426Z,100695.31
2022-09-15T10:05:29.918Z,100691.13
2022-09-15T10:08:33.868Z,100672.00
2022-09-15T10:11:22.056Z,100713.75
2022-09-15T10:14:06.452Z,100718.16
2022-09-15T10:16:44.083Z,100724.34
2022-09-15T10:19:29.074Z,100726.97
2022-09-15T10:22:15.192Z,100649.09
2022-09-15T10:24:54.701Z,100716.59
2022-09-15T10:30:45.590Z,100724.53
2022-09-15T10:33:38.152Z,100698.91
2022-09-15T10:40:48.008Z,100727.94
2022-09-15T10:44:12.890Z,100716.81
2022-09-15T10:47:15.138Z,100731.66
2022-09-15T10:50:09.709Z,100726.50
2022-09-15T10:53:05.912Z,100711.81
2022-09-15T10:56:23.684Z,100729.91
2022-09-15T10:59:43.998Z,100735.13
2022-09-15T11:02:59.012Z,100717.94
2022-09-15T11:06:14.695Z,100742.03
2022-09-15T11:09:27.664Z,100751.59
2022-09-15T11:12:33.153Z,100750.81
2022-09-15T11:15:56.922Z,100745.72
2022-09-15T11:18:53.960Z,100754.34
2022-09-15T11:21:44.769Z,100745.81
2022-09-15T11:25:02.093Z,100699.25
2022-09-15T11:27:55.784Z,100759.13
2022-09-15T11:30:55.981Z,100756.56
2022-09-15T11:33:55.632Z,100750.66
2022-09-15T11:37:06.262Z,100768.94
2022-09-15T11:43:06.333Z,100761.50
2022-09-15T11:45:52.870Z,100765.88
2022-09-15T11:48:47.853Z,100766.00
2022-09-15T11:51:34.789Z,100762.59
2022-09-15T11:54:31.015Z,100764.41
2022-09-15T11:57:14.767Z,100753.94
2022-09-15T12:00:19.039Z,100745.22
2022-09-15T12:03:14.379Z,100754.75
2022-09-15T12:05:55.831Z,100736.56
2022-09-15T12:08:45.869Z,100752.19
2022-09-15T12:11:32.659Z,100733.16
2022-09-15T12:14:31.232Z,100666.41
2022-09-15T12:17:14.902Z,100746.94
2022-09-15T12:20:02.849Z,100741.69
2022-09-15T12:23:03.601Z,100712.31
2022-09-15T12:26:22.736Z,100670.81
2022-09-15T12:29:18.792Z,100734.81
2022-09-15T12:35:12.804Z,100742.72
2022-09-15T12:38:02.173Z,100751.69
2022-09-15T12:41:07.829Z,100763.09
2022-09-15T12:43:43.752Z,100751.84
2022-09-15T12:46:38.794Z,100735.59
2022-09-15T12:49:26.986Z,100768.75
2022-09-15T12:52:19.931Z,100790.50
2022-09-15T12:55:18.488Z,100788.78
2022-09-15T12:58:03.267Z,100762.75
2022-09-15T13:01:16.915Z,100803.47
2022-09-15T13:04:29.956Z,100809.53
2022-09-15T13:11:13.235Z,100805.09
2022-09-15T13:13:57.845Z,100800.72
2022-09-15T13:16:41.982Z,100812.00
2022-09-15T13:19:26.484Z,100813.75
2022-09-15T13:22:20.142Z,100816.41
2022-09-15T13:25:05.880Z,100815.56
2022-09-15T13:27:49.841Z,100816.50
2022-09-15T13:30:55.933Z,100823.44
2022-09-15T13:40:33.870Z,100830.75
2022-09-15T13:43:41.002Z,100829.97
2022-09-15T13:46:43.946Z,100821.28
2022-09-15T13:50:02.102Z,100836.94
2022-09-15T13:53:03.107Z,100836.94
2022-09-15T13:56:06.266Z,100845.63
2022-09-15T13:59:06.810Z,100846.50
2022-09-15T14:01:54.765Z,100842.19
2022-09-15T14:04:33.293Z,100839.53
2022-09-15T14:07:20.085Z,100836.97
2022-09-15T14:09:59.732Z,100862.22
2022-09-15T14:12:47.417Z,100862.25
2022-09-15T14:15:31.919Z,100838.03
2022-09-15T14:18:17.945Z,100857.09
2022-09-15T14:21:04.981Z,100864.09
2022-09-15T14:24:03.390Z,100867.56
2022-09-15T14:29:36.414Z,100870.19
2022-09-15T14:32:28.822Z,100807.75
2022-09-15T14:35:06.615Z,100875.47
2022-09-15T14:38:08.754Z,100880.72
2022-09-15T14:40:58.371Z,100875.47
2022-09-15T14:47:02.928Z,100882.44
2022-09-15T14:49:56.922Z,100894.59
2022-09-15T14:52:59.387Z,100891.19
2022-09-15T14:55:43.384Z,100897.25
2022-09-15T14:58:33.028Z,100906.00
2022-09-15T15:01:10.636Z,100902.56
2022-09-15T15:04:04.767Z,100905.16
2022-09-15T15:06:45.921Z,100892.09
2022-09-15T15:09:28.488Z,100894.72
2022-09-15T15:12:12.909Z,100903.41
2022-09-15T15:14:56.097Z,100906.84
2022-09-15T15:17:44.263Z,100912.00
2022-09-15T15:20:23.690Z,100903.34
2022-09-15T15:23:33.216Z,100910.25
2022-09-15T15:26:56.836Z,100918.97
2022-09-15T15:29:56.728Z,100882.53
2022-09-15T15:32:43.142Z,100915.47
2022-09-15T15:35:33.351Z,100865.09
2022-09-15T15:38:27.365Z,100915.47
2022-09-15T15:41:29.965Z,100918.06
2022-09-15T15:47:18.372Z,100917.28
2022-09-15T15:50:20.110Z,100901.63
2022-09-15T15:53:03.844Z,100916.41
2022-09-15T15:56:04.034Z,100912.03
2022-09-15T15:59:18.450Z,100916.41
2022-09-15T16:02:05.714Z,100906.84
2022-09-15T16:04:45.792Z,100915.50
2022-09-15T16:07:33.539Z,100912.88
2022-09-15T16:10:28.119Z,100905.06
2022-09-15T16:13:20.361Z,100891.19
2022-09-15T16:16:02.154Z,100908.59
2022-09-15T16:18:41.724Z,100904.28
2022-09-15T16:21:34.549Z,100899.94
2022-09-15T16:24:20.175Z,100902.56
2022-09-15T16:26:59.394Z,100897.41
2022-09-15T16:29:45.791Z,100865.34
2022-09-15T16:32:35.893Z,100913.09
2022-09-15T16:38:29.971Z,100913.09
2022-09-15T16:41:42.119Z,100905.28
2022-09-15T16:44:24.579Z,100886.16
2022-09-15T16:47:04.759Z,100816.69
2022-09-15T16:49:47.243Z,100907.03
2022-09-15T16:52:30.286Z,100910.53
2022-09-15T16:55:18.544Z,100917.50
2022-09-15T16:57:56.043Z,100909.69
2022-09-15T17:00:37.249Z,100873.19
2022-09-15T17:03:18.298Z,100889.69
2022-09-15T17:06:13.131Z,100912.28
2022-09-15T17:09:00.386Z,100894.88
2022-09-15T17:11:42.901Z,100908.78
2022-09-15T17:14:22.819Z,100897.50
2022-09-15T17:17:14.908Z,100901.84
2022-09-15T17:23:07.482Z,100906.19
2022-09-15T17:25:56.464Z,100871.44
2022-09-15T17:28:48.741Z,100901.84
2022-09-15T17:31:33.194Z,100906.19
2022-09-15T17:34:16.985Z,100914.84
2022-09-15T17:37:13.031Z,100904.44
2022-09-15T17:39:59.105Z,100906.16
2022-09-15T17:42:34.050Z,100903.59
2022-09-15T17:45:42.153Z,100903.56
2022-09-15T17:48:25.145Z,100900.97
2022-09-15T17:51:04.446Z,100910.53
2022-09-15T17:53:40.190Z,100910.53
2022-09-15T17:56:33.974Z,100904.47
2022-09-15T18:04:57.512Z,100803.72
2022-09-15T18:07:39.757Z,100913.97
2022-09-15T18:10:27.441Z,100827.16
2022-09-15T18:13:12.635Z,100897.50
2022-09-15T18:16:05.603Z,100895.75
2022-09-15T18:18:44.075Z,100912.28
2022-09-15T18:21:30.856Z,100914.03
2022-09-15T18:24:08.852Z,100907.06
2022-09-15T18:26:49.767Z,100914.03
2022-09-15T18:32:40.458Z,100914.03
2022-09-15T18:35:34.842Z,100908.78
2022-09-15T18:38:10.249Z,100923.59
2022-09-15T18:40:57.847Z,100923.59
2022-09-15T18:43:35.951Z,100932.28
2022-09-15T18:46:21.858Z,100931.41
2022-09-15T18:49:24.101Z,100935.75
2022-09-15T18:52:10.199Z,100920.97
2022-09-15T18:54:59.142Z,100898.41
2022-09-15T18:57:44.623Z,100943.63
2022-09-15T19:00:33.351Z,100896.69
2022-09-15T19:03:25.527Z,100955.75
2022-09-15T19:08:49.955Z,100926.22
2022-09-15T19:14:22.460Z,100964.44
2022-09-15T19:17:15.960Z,100958.34
2022-09-15T19:20:13.063Z,100965.34
2022-09-15T19:22:57.561Z,100971.44
2022-09-15T19:28:38.699Z,100969.69
2022-09-15T19:31:16.372Z,100968.81
2022-09-15T19:33:58.514Z,100971.44
2022-09-15T19:36:42.854Z,100966.22
2022-09-15T19:39:37.245Z,100987.09
2022-09-15T19:42:25.712Z,100923.63
2022-09-15T19:45:16.269Z,100980.09
2022-09-15T19:48:05.813Z,100983.59
2022-09-15T19:50:51.186Z,100978.38
2022-09-15T19:53:35.686Z,100985.31
2022-09-15T19:56:30.763Z,100994.94
2022-09-15T19:59:07.606Z,100988.84
2022-09-15T20:01:47.699Z,100993.19
2022-09-15T20:04:27.119Z,100971.47
2022-09-15T20:07:15.341Z,101004.47
2022-09-15T20:09:58.132Z,101002.72
2022-09-15T20:12:56.458Z,101012.28
2022-09-15T20:16:06.575Z,101004.47
2022-09-15T20:18:50.633Z,101008.81
2022-09-15T20:21:49.160Z,101006.19
2022-09-15T20:24:50.683Z,101020.09
2022-09-15T20:27:36.584Z,101015.75
2022-09-15T20:30:17.505Z,101003.56
2022-09-15T20:32:57.236Z,101001.78
2022-09-15T20:35:30.817Z,101000.97
2022-09-15T20:38:07.583Z,101014.03
2022-09-15T20:40:54.838Z,100993.97
2022-09-15T20:43:45.123Z,101021.81
2022-09-15T20:46:47.076Z,101020.97
2022-09-15T20:49:21.517Z,101025.31
2022-09-15T20:52:07.100Z,101012.25
2022-09-15T20:54:55.068Z,101018.34
2022-09-15T20:57:33.166Z,101020.06
2022-09-15T21:00:18.324Z,101020.03
2022-09-15T21:03:10.798Z,101027.03
2022-09-15T21:06:11.428Z,101020.91
2022-09-15T21:08:53.282Z,101020.06
2022-09-15T21:11:34.058Z,101027.00
2022-09-15T21:14:10.471Z,101033.09
2022-09-15T21:16:54.202Z,101042.69
2022-09-15T21:19:43.176Z,101047.88
2022-09-15T21:22:24.636Z,101040.03
2022-09-15T21:25:07.581Z,101050.47
2022-09-15T21:27:53.688Z,101044.34
2022-09-15T21:30:52.078Z,101047.00
2022-09-15T21:33:35.152Z,101040.91
2022-09-15T21:36:12.543Z,101044.38
2022-09-15T21:39:19.903Z,101052.22
2022-09-15T21:41:57.172Z,101055.72
2022-09-15T21:45:10.374Z,101049.59
2022-09-15T21:47:55.958Z,101060.88
2022-09-15T21:53:54.375Z,101053.03
2022-09-15T21:56:35.668Z,101051.28
2022-09-15T21:59:16.061Z,101053.03
2022-09-15T22:02:02.974Z,101063.50
2022-09-15T22:04:47.557Z,101059.13
2022-09-15T22:07:31.783Z,101067.88
2022-09-15T22:10:30.725Z,101062.59
2022-09-15T22:13:13.266Z,101061.72
2022-09-15T22:15:53.379Z,101058.25
2022-09-15T22:18:28.110Z,101022.59
2022-09-15T22:21:15.948Z,101045.16
2022-09-15T22:24:11.233Z,101038.19
2022-09-15T22:26:56.676Z,101046.88
2022-09-15T22:29:48.557Z,101051.16
2022-09-15T22:32:38.163Z,101046.81
2022-09-15T22:35:39.764Z,101056.34
2022-09-15T22:38:27.976Z,101048.41
2022-09-15T22:41:31.794Z,101048.34
2022-09-15T22:44:10.140Z,100971.88
2022-09-15T22:46:51.477Z,101051.75
2022-09-15T22:49:34.403Z,101047.31
2022-09-15T22:52:12.904Z,101040.25
2022-09-15T22:54:53.872Z,101034.03
2022-09-15T22:57:36.769Z,101039.22
2022-09-15T23:00:30.396Z,101035.72
2022-09-15T23:03:13.623Z,101045.28
2022-09-15T23:05:55.063Z,100991.31
2022-09-15T23:08:33.940Z,101044.19
2022-09-15T23:14:23.175Z,101041.38
2022-09-15T23:17:00.796Z,101052.38
2022-09-15T23:19:40.058Z,101050.66
2022-09-15T23:22:21.821Z,101025.41
2022-09-15T23:28:07.198Z,101058.91
2022-09-15T23:31:05.252Z,101054.34
2022-09-15T23:33:40.888Z,101050.50
2022-09-15T23:36:25.556Z,101038.91
2022-09-15T23:39:07.526Z,101053.78
2022-09-15T23:41:48.701Z,101039.84
2022-09-15T23:44:30.116Z,101034.56
2022-09-15T23:47:19.404Z,101026.50
2022-09-15T23:50:02.141Z,101031.44
2022-09-15T23:52:40.099Z,101031.53
2022-09-15T23:55:33.746Z,101025.69
2022-09-15T23:58:14.880Z,101015.94
